createdAt,value
2019-06-26T00:00:47.431Z,0
2019-06-26T00:01:57.436Z,0
2019-06-26T00:03:07.449Z,0
2019-06-26T00:04:17.408Z,0
2019-06-26T00:05:27.136Z,0
2019-06-26T00:06:36.856Z,0
2019-06-26T00:07:46.819Z,0
2019-06-26T00:08:56.317Z,0
2019-06-26T00:10:06.342Z,0
2019-06-26T00:11:16.318Z,0
2019-06-26T00:12:26.283Z,0
2019-06-26T00:13:36.421Z,0
2019-06-26T00:14:48.560Z,0
2019-06-26T00:15:58.567Z,0
2019-06-26T00:17:08.547Z,0
2019-06-26T00:18:18.284Z,0
2019-06-26T00:19:28.036Z,0
2019-06-26T00:20:38.020Z,0
2019-06-26T00:21:47.990Z,0
2019-06-26T00:22:58.156Z,0
2019-06-26T00:24:08.024Z,0
2019-06-26T00:25:18.039Z,0
2019-06-26T00:26:27.525Z,0
2019-06-26T00:27:37.022Z,0
2019-06-26T00:28:47.012Z,0
2019-06-26T00:29:56.760Z,0
2019-06-26T00:31:06.708Z,0
2019-06-26T00:32:16.691Z,0
2019-06-26T00:33:26.648Z,0
2019-06-26T00:34:36.628Z,0
2019-06-26T00:35:45.941Z,0
2019-06-26T00:36:55.945Z,0
2019-06-26T00:38:05.688Z,0
2019-06-26T00:39:15.667Z,0
2019-06-26T00:40:25.640Z,0
2019-06-26T00:41:35.359Z,0
2019-06-26T00:42:45.314Z,0
2019-06-26T00:43:55.069Z,0
2019-06-26T00:45:05.179Z,0
2019-06-26T00:46:14.895Z,0
2019-06-26T00:47:24.611Z,0
2019-06-26T00:48:34.106Z,0
2019-06-26T00:49:44.084Z,0
2019-06-26T00:50:53.852Z,0
2019-06-26T00:52:03.813Z,0
2019-06-26T00:53:13.802Z,0
2019-06-26T00:54:23.519Z,0
2019-06-26T00:55:33.488Z,0
2019-06-26T00:56:43.187Z,0
2019-06-26T00:57:52.919Z,0
2019-06-26T00:59:02.965Z,0
2019-06-26T01:00:12.976Z,0
2019-06-26T01:01:23.037Z,0
2019-06-26T01:02:33.001Z,0
2019-06-26T01:03:42.982Z,0
2019-06-26T01:04:52.797Z,0
2019-06-26T01:06:02.820Z,0
2019-06-26T01:07:12.539Z,0
2019-06-26T01:08:22.563Z,0
2019-06-26T01:09:32.347Z,0
2019-06-26T01:10:42.081Z,0
2019-06-26T01:11:51.825Z,0
2019-06-26T01:13:01.593Z,0
2019-06-26T01:14:11.376Z,0
2019-06-26T01:15:21.344Z,0
2019-06-26T01:16:31.289Z,0
2019-06-26T01:17:41.281Z,0
2019-06-26T01:18:50.747Z,0
2019-06-26T01:20:00.780Z,0
2019-06-26T01:21:10.487Z,0
2019-06-26T01:22:20.199Z,0
2019-06-26T01:23:30.187Z,0
2019-06-26T01:24:40.635Z,0
2019-06-26T01:25:50.408Z,0
2019-06-26T01:27:00.481Z,0
2019-06-26T01:28:10.471Z,0
2019-06-26T01:29:20.200Z,0
2019-06-26T01:30:30.161Z,0
2019-06-26T01:31:40.129Z,0
2019-06-26T01:32:49.839Z,0
2019-06-26T01:33:59.822Z,0
2019-06-26T01:35:09.802Z,0
2019-06-26T01:36:19.255Z,0
2019-06-26T01:37:29.217Z,0
2019-06-26T01:38:38.729Z,0
2019-06-26T01:39:48.469Z,0
2019-06-26T01:40:58.507Z,0
2019-06-26T01:42:08.471Z,0
2019-06-26T01:43:18.168Z,0
2019-06-26T01:44:27.881Z,0
2019-06-26T01:45:37.836Z,0
2019-06-26T01:46:47.837Z,0
2019-06-26T01:47:58.061Z,0
2019-06-26T01:49:07.565Z,0
2019-06-26T01:50:17.261Z,0
2019-06-26T01:51:27.224Z,0
2019-06-26T01:52:37.194Z,0
2019-06-26T01:53:47.189Z,0
2019-06-26T01:54:57.149Z,0
2019-06-26T01:56:06.633Z,0
2019-06-26T01:57:16.610Z,0
2019-06-26T01:58:26.565Z,0
2019-06-26T01:59:36.553Z,0
2019-06-26T02:00:46.524Z,0
2019-06-26T02:01:56.105Z,0
2019-06-26T02:03:05.803Z,0
2019-06-26T02:04:18.096Z,0
2019-06-26T02:05:27.915Z,0
2019-06-26T02:06:37.644Z,0
2019-06-26T02:07:47.644Z,0
2019-06-26T02:08:57.379Z,0
2019-06-26T02:10:07.376Z,0
2019-06-26T02:11:17.398Z,0
2019-06-26T02:12:27.360Z,0
2019-06-26T02:13:37.309Z,0
2019-06-26T02:14:47.040Z,0
2019-06-26T02:15:56.485Z,0
2019-06-26T02:17:06.467Z,0
2019-06-26T02:18:16.181Z,0
2019-06-26T02:19:25.906Z,0
2019-06-26T02:20:35.883Z,0
2019-06-26T02:21:45.881Z,0
2019-06-26T02:22:59.174Z,0
2019-06-26T02:24:09.218Z,0
2019-06-26T02:25:18.976Z,0
2019-06-26T02:26:28.711Z,0
2019-06-26T02:27:38.448Z,0
2019-06-26T02:28:48.428Z,0
2019-06-26T02:29:58.386Z,0
2019-06-26T02:31:08.363Z,0
2019-06-26T02:32:18.334Z,0
2019-06-26T02:33:28.139Z,0
2019-06-26T02:34:37.854Z,0
2019-06-26T02:35:47.839Z,0
2019-06-26T02:36:57.358Z,0
2019-06-26T02:38:07.162Z,0
2019-06-26T02:39:17.122Z,0
2019-06-26T02:40:26.602Z,5
2019-06-26T02:41:36.561Z,5
2019-06-26T02:42:46.361Z,5
2019-06-26T02:43:56.076Z,5
2019-06-26T02:45:06.078Z,5
2019-06-26T02:46:16.038Z,5
2019-06-26T02:47:29.464Z,5
2019-06-26T02:48:39.577Z,10
2019-06-26T02:49:49.084Z,10
2019-06-26T02:50:59.071Z,10
2019-06-26T02:52:08.790Z,10
2019-06-26T02:53:18.515Z,10
2019-06-26T02:54:28.291Z,10
2019-06-26T02:55:38.249Z,15
2019-06-26T02:56:47.490Z,15
2019-06-26T02:57:57.504Z,15
2019-06-26T02:59:07.473Z,15
2019-06-26T03:00:17.195Z,20
2019-06-26T03:01:27.174Z,20
2019-06-26T03:02:37.148Z,20
2019-06-26T03:03:46.623Z,20
2019-06-26T03:04:56.342Z,25
2019-06-26T03:06:06.342Z,25
2019-06-26T03:07:16.306Z,25
2019-06-26T03:08:26.314Z,25
2019-06-26T03:09:36.017Z,30
2019-06-26T03:10:45.737Z,30
2019-06-26T03:11:55.437Z,35
2019-06-26T03:13:05.167Z,35
2019-06-26T03:14:15.154Z,35
2019-06-26T03:15:24.848Z,35
2019-06-26T03:16:34.816Z,35
2019-06-26T03:18:01.168Z,35
2019-06-26T03:19:11.225Z,35
2019-06-26T03:20:21.184Z,35
2019-06-26T03:21:30.919Z,40
2019-06-26T03:22:40.873Z,40
2019-06-26T03:23:50.840Z,40
2019-06-26T03:25:00.591Z,45
2019-06-26T03:26:10.576Z,45
2019-06-26T03:27:20.297Z,45
2019-06-26T03:28:30.002Z,50
2019-06-26T03:29:39.964Z,50
2019-06-26T03:30:49.769Z,50
2019-06-26T03:31:59.245Z,50
2019-06-26T03:33:09.029Z,55
2019-06-26T03:34:18.819Z,55
2019-06-26T03:35:28.779Z,55
2019-06-26T03:36:38.245Z,55
2019-06-26T03:37:48.236Z,60
2019-06-26T03:38:58.217Z,60
2019-06-26T03:40:07.985Z,65
2019-06-26T03:41:17.977Z,65
2019-06-26T03:42:27.430Z,65
2019-06-26T03:43:40.340Z,65
2019-06-26T03:44:50.296Z,65
2019-06-26T03:46:00.407Z,70
2019-06-26T03:47:10.414Z,70
2019-06-26T03:48:20.143Z,70
2019-06-26T03:49:30.102Z,70
2019-06-26T03:50:40.083Z,75
2019-06-26T03:51:50.190Z,75
2019-06-26T03:53:00.428Z,75
2019-06-26T03:54:10.401Z,80
2019-06-26T03:55:19.849Z,80
2019-06-26T03:56:29.877Z,80
2019-06-26T03:57:42.449Z,85
2019-06-26T03:58:51.903Z,85
2019-06-26T04:00:02.052Z,85
2019-06-26T04:01:12.195Z,85
2019-06-26T04:02:21.939Z,90
2019-06-26T04:03:31.884Z,90
2019-06-26T04:04:41.876Z,90
2019-06-26T04:05:51.846Z,95
2019-06-26T04:07:01.831Z,95
2019-06-26T04:08:11.890Z,95
2019-06-26T04:09:21.843Z,95
2019-06-26T04:10:31.547Z,100
2019-06-26T04:11:41.265Z,100
2019-06-26T04:12:50.977Z,100
2019-06-26T04:14:00.670Z,100
2019-06-26T04:15:10.692Z,105
2019-06-26T04:16:19.927Z,105
2019-06-26T04:17:29.929Z,105
2019-06-26T04:18:40.026Z,105
2019-06-26T04:19:49.731Z,105
2019-06-26T04:20:59.701Z,110
2019-06-26T04:22:09.403Z,110
2019-06-26T04:23:19.350Z,110
2019-06-26T04:24:29.314Z,110
2019-06-26T04:25:42.725Z,110
2019-06-26T04:26:52.672Z,115
2019-06-26T04:28:05.506Z,115
2019-06-26T04:29:16.328Z,115
2019-06-26T04:30:26.410Z,115
2019-06-26T04:31:36.132Z,115
2019-06-26T04:32:46.123Z,120
2019-06-26T04:33:56.073Z,120
2019-06-26T04:35:05.918Z,120
2019-06-26T04:36:15.866Z,120
2019-06-26T04:37:25.843Z,120
2019-06-26T04:38:35.802Z,125
2019-06-26T04:39:45.513Z,125
2019-06-26T04:40:55.470Z,125
2019-06-26T04:42:05.429Z,125
2019-06-26T04:43:15.452Z,125
2019-06-26T04:44:25.460Z,130
2019-06-26T04:45:35.217Z,130
2019-06-26T04:46:44.977Z,130
2019-06-26T04:47:54.982Z,130
2019-06-26T04:49:04.934Z,130
2019-06-26T04:50:14.632Z,130
2019-06-26T04:51:24.599Z,135
2019-06-26T04:52:34.739Z,135
2019-06-26T04:53:44.725Z,135
2019-06-26T04:54:54.663Z,135
2019-06-26T04:56:04.656Z,135
2019-06-26T04:57:14.595Z,135
2019-06-26T04:58:24.351Z,140
2019-06-26T04:59:34.334Z,140
2019-06-26T05:00:44.381Z,140
2019-06-26T05:01:53.870Z,140
2019-06-26T05:03:03.824Z,140
2019-06-26T05:04:13.289Z,140
2019-06-26T05:05:35.427Z,140
2019-06-26T05:06:48.467Z,145
2019-06-26T05:08:01.034Z,145
2019-06-26T05:09:11.046Z,145
2019-06-26T05:10:20.742Z,145
2019-06-26T05:11:30.719Z,145
2019-06-26T05:12:40.697Z,145
2019-06-26T05:13:50.699Z,145
2019-06-26T05:15:00.401Z,145
2019-06-26T05:16:27.564Z,150
2019-06-26T05:17:36.842Z,150
2019-06-26T05:18:46.947Z,150
2019-06-26T05:19:56.649Z,150
2019-06-26T05:21:06.353Z,150
2019-06-26T05:22:16.064Z,150
2019-06-26T05:23:25.779Z,150
2019-06-26T05:24:35.821Z,150
2019-06-26T05:25:45.544Z,150
2019-06-26T05:26:55.257Z,150
2019-06-26T05:28:08.171Z,155
2019-06-26T05:29:18.103Z,155
2019-06-26T05:30:28.074Z,155
2019-06-26T05:31:38.056Z,155
2019-06-26T05:32:48.258Z,155
2019-06-26T05:33:57.983Z,160
2019-06-26T05:35:07.993Z,160
2019-06-26T05:36:17.735Z,160
2019-06-26T05:37:27.695Z,160
2019-06-26T05:38:37.411Z,160
2019-06-26T05:39:47.377Z,160
2019-06-26T05:40:57.089Z,160
2019-06-26T05:42:09.315Z,165
2019-06-26T05:43:19.305Z,165
2019-06-26T05:44:28.777Z,165
2019-06-26T05:45:38.559Z,165
2019-06-26T05:46:48.530Z,165
2019-06-26T05:47:58.008Z,165
2019-06-26T05:49:07.728Z,165
2019-06-26T05:50:17.899Z,170
2019-06-26T05:51:27.621Z,170
2019-06-26T05:52:37.585Z,170
2019-06-26T05:53:47.523Z,170
2019-06-26T05:54:57.506Z,170
2019-06-26T05:56:07.481Z,170
2019-06-26T05:57:17.443Z,170
2019-06-26T05:58:27.402Z,170
2019-06-26T05:59:37.405Z,170
2019-06-26T06:00:47.159Z,170
2019-06-26T06:01:57.132Z,170
2019-06-26T06:03:07.181Z,170
2019-06-26T06:04:17.115Z,170
2019-06-26T06:05:26.329Z,170
2019-06-26T06:06:50.414Z,170
2019-06-26T06:08:00.386Z,170
2019-06-26T06:09:10.334Z,170
2019-06-26T06:10:20.025Z,170
2019-06-26T06:11:29.977Z,170
2019-06-26T06:12:39.930Z,170
2019-06-26T06:13:49.941Z,170
2019-06-26T06:14:59.963Z,175
2019-06-26T06:16:13.331Z,175
2019-06-26T06:17:23.302Z,175
2019-06-26T06:18:33.007Z,180
2019-06-26T06:19:42.736Z,180
2019-06-26T06:20:52.736Z,185
2019-06-26T06:22:02.698Z,185
2019-06-26T06:23:12.639Z,185
2019-06-26T06:24:22.618Z,190
2019-06-26T06:25:32.583Z,190
2019-06-26T06:26:42.293Z,190
2019-06-26T06:27:52.269Z,195
2019-06-26T06:29:02.343Z,195
2019-06-26T06:30:11.932Z,195
2019-06-26T06:31:21.658Z,200
2019-06-26T06:32:31.605Z,200
2019-06-26T06:33:41.578Z,200
2019-06-26T06:34:51.592Z,205
2019-06-26T06:36:01.294Z,205
2019-06-26T06:37:10.799Z,205
2019-06-26T06:38:20.792Z,205
2019-06-26T06:39:30.789Z,205
2019-06-26T06:40:40.518Z,205
2019-06-26T06:41:52.797Z,205
2019-06-26T06:43:02.651Z,205
2019-06-26T06:44:12.344Z,205
2019-06-26T06:45:22.490Z,205
2019-06-26T06:46:32.467Z,205
2019-06-26T06:47:42.218Z,205
2019-06-26T06:48:51.910Z,205
2019-06-26T06:50:01.864Z,210
2019-06-26T06:51:11.558Z,210
2019-06-26T06:52:23.863Z,210
2019-06-26T06:53:33.839Z,210
2019-06-26T06:54:43.813Z,210
2019-06-26T06:55:53.794Z,210
2019-06-26T06:57:03.608Z,215
2019-06-26T06:58:13.062Z,210
2019-06-26T06:59:23.079Z,210
2019-06-26T07:00:33.065Z,210
2019-06-26T07:01:42.768Z,215
2019-06-26T07:02:52.849Z,215
2019-06-26T07:04:02.795Z,215
2019-06-26T07:05:12.508Z,215
2019-06-26T07:06:22.221Z,215
2019-06-26T07:07:32.187Z,215
2019-06-26T07:08:42.153Z,215
2019-06-26T07:09:52.098Z,215
2019-06-26T07:11:01.865Z,215
2019-06-26T07:12:11.824Z,215
2019-06-26T07:13:21.790Z,220
2019-06-26T07:14:31.777Z,220
2019-06-26T07:15:41.487Z,220
2019-06-26T07:16:51.503Z,220
2019-06-26T07:18:01.490Z,220
2019-06-26T07:19:11.489Z,220
2019-06-26T07:20:21.474Z,220
2019-06-26T07:21:31.441Z,220
2019-06-26T07:22:40.987Z,220
2019-06-26T07:23:50.961Z,225
2019-06-26T07:25:00.947Z,225
2019-06-26T07:26:13.268Z,225
2019-06-26T07:27:23.092Z,225
2019-06-26T07:28:32.867Z,225
2019-06-26T07:29:42.343Z,225
2019-06-26T07:30:52.384Z,225
2019-06-26T07:32:02.146Z,230
2019-06-26T07:33:12.147Z,230
2019-06-26T07:34:21.870Z,230
2019-06-26T07:35:31.625Z,230
2019-06-26T07:36:41.603Z,230
2019-06-26T07:37:51.570Z,235
2019-06-26T07:39:01.344Z,235
2019-06-26T07:40:12.162Z,235
2019-06-26T07:41:22.176Z,235
2019-06-26T07:42:32.164Z,235
2019-06-26T07:43:42.141Z,235
2019-06-26T07:44:51.864Z,240
2019-06-26T07:46:01.583Z,240
2019-06-26T07:47:45.447Z,240
2019-06-26T07:48:57.561Z,240
2019-06-26T07:50:07.606Z,245
2019-06-26T07:51:17.602Z,245
2019-06-26T07:52:27.791Z,245
2019-06-26T07:53:37.751Z,245
2019-06-26T07:54:47.472Z,250
2019-06-26T07:55:57.221Z,250
2019-06-26T07:57:07.257Z,250
2019-06-26T07:58:17.225Z,250
2019-06-26T07:59:26.693Z,255
2019-06-26T08:00:41.034Z,255
2019-06-26T08:01:51.375Z,255
2019-06-26T08:03:04.161Z,255
2019-06-26T08:04:14.674Z,255
2019-06-26T08:05:24.665Z,260
2019-06-26T08:06:34.671Z,260
2019-06-26T08:07:44.656Z,260
2019-06-26T08:08:54.681Z,265
2019-06-26T08:10:04.637Z,265
2019-06-26T08:11:15.898Z,265
2019-06-26T08:12:25.683Z,265
2019-06-26T08:13:35.423Z,265
2019-06-26T08:14:45.411Z,270
2019-06-26T08:15:55.554Z,270
2019-06-26T08:17:05.555Z,270
2019-06-26T08:18:15.274Z,270
2019-06-26T08:19:25.227Z,270
2019-06-26T08:20:50.105Z,270
2019-06-26T08:22:05.068Z,275
2019-06-26T08:23:15.065Z,275
2019-06-26T08:24:25.169Z,275
2019-06-26T08:25:35.000Z,280
2019-06-26T08:26:44.703Z,280
2019-06-26T08:27:54.733Z,280
2019-06-26T08:29:04.468Z,285
2019-06-26T08:30:14.527Z,285
2019-06-26T08:31:24.493Z,285
2019-06-26T08:32:35.661Z,285
2019-06-26T08:33:45.635Z,290
2019-06-26T08:34:55.678Z,290
2019-06-26T08:36:05.637Z,290
2019-06-26T08:37:15.612Z,295
2019-06-26T08:38:25.622Z,295
2019-06-26T08:39:35.340Z,295
2019-06-26T08:40:45.078Z,300
2019-06-26T08:41:54.961Z,300
2019-06-26T08:43:05.033Z,305
2019-06-26T08:44:15.004Z,305
2019-06-26T08:45:24.743Z,310
2019-06-26T08:46:34.786Z,310
2019-06-26T08:47:44.769Z,310
2019-06-26T08:48:59.082Z,310
2019-06-26T08:50:08.888Z,315
2019-06-26T08:51:19.118Z,315
2019-06-26T08:52:29.100Z,320
2019-06-26T08:53:38.885Z,325
2019-06-26T08:54:48.411Z,330
2019-06-26T08:55:58.423Z,335
2019-06-26T08:57:08.414Z,350
2019-06-26T08:58:18.132Z,365
2019-06-26T08:59:28.347Z,390
2019-06-26T09:00:38.533Z,410
2019-06-26T09:01:48.412Z,460
2019-06-26T09:02:57.635Z,495
2019-06-26T09:04:07.643Z,500
2019-06-26T09:05:17.341Z,500
2019-06-26T09:06:27.322Z,500
2019-06-26T09:07:37.288Z,500
2019-06-26T09:08:47.261Z,495
2019-06-26T09:09:57.223Z,485
2019-06-26T09:11:06.953Z,485
2019-06-26T09:12:16.923Z,485
2019-06-26T09:13:26.912Z,490
2019-06-26T09:14:36.692Z,490
2019-06-26T09:15:49.682Z,495
2019-06-26T09:16:59.984Z,495
2019-06-26T09:18:09.954Z,500
2019-06-26T09:19:19.693Z,500
2019-06-26T09:20:29.673Z,510
2019-06-26T09:21:40.586Z,515
2019-06-26T09:22:50.600Z,510
2019-06-26T09:24:00.446Z,510
2019-06-26T09:25:28.118Z,515
2019-06-26T09:26:38.150Z,515
2019-06-26T09:27:47.897Z,520
2019-06-26T09:28:57.624Z,520
2019-06-26T09:30:07.700Z,525
2019-06-26T09:31:17.705Z,530
2019-06-26T09:32:27.444Z,540
2019-06-26T09:33:41.729Z,545
2019-06-26T09:34:51.719Z,545
2019-06-26T09:36:01.702Z,550
2019-06-26T09:37:11.670Z,550
2019-06-26T09:38:21.662Z,555
2019-06-26T09:39:31.665Z,555
2019-06-26T09:40:41.909Z,550
2019-06-26T09:41:51.880Z,535
2019-06-26T09:43:01.849Z,535
2019-06-26T09:44:11.834Z,550
2019-06-26T09:45:21.844Z,545
2019-06-26T09:46:31.827Z,540
2019-06-26T09:47:41.801Z,525
2019-06-26T09:49:02.193Z,550
2019-06-26T09:50:11.668Z,555
2019-06-26T09:51:21.632Z,560
2019-06-26T09:52:31.803Z,550
2019-06-26T09:53:55.881Z,565
2019-06-26T09:55:05.616Z,585
2019-06-26T09:56:15.593Z,560
2019-06-26T09:57:25.077Z,535
2019-06-26T09:58:35.031Z,570
2019-06-26T09:59:44.754Z,575
2019-06-26T10:00:54.719Z,595
2019-06-26T10:02:04.676Z,605
2019-06-26T10:03:14.677Z,615
2019-06-26T10:04:24.778Z,615
2019-06-26T10:05:34.607Z,605
2019-06-26T10:06:44.323Z,605
2019-06-26T10:07:54.291Z,610
2019-06-26T10:09:04.118Z,615
2019-06-26T10:10:13.848Z,665
2019-06-26T10:11:23.847Z,680
2019-06-26T10:12:33.817Z,685
2019-06-26T10:13:43.531Z,695
2019-06-26T10:14:57.271Z,705
2019-06-26T10:16:10.108Z,720
2019-06-26T10:17:19.819Z,715
2019-06-26T10:18:29.848Z,720
2019-06-26T10:19:39.832Z,725
2019-06-26T10:20:49.805Z,730
2019-06-26T10:21:59.874Z,745
2019-06-26T10:23:09.593Z,755
2019-06-26T10:24:19.571Z,760
2019-06-26T10:25:29.708Z,760
2019-06-26T10:26:42.233Z,770
2019-06-26T10:27:52.242Z,770
2019-06-26T10:29:02.367Z,770
2019-06-26T10:30:12.403Z,770
2019-06-26T10:31:25.648Z,755
2019-06-26T10:32:35.505Z,780
2019-06-26T10:33:45.300Z,785
2019-06-26T10:34:55.059Z,805
2019-06-26T10:36:05.043Z,860
2019-06-26T10:37:15.043Z,935
2019-06-26T10:38:25.236Z,1000
2019-06-26T10:39:34.738Z,1025
2019-06-26T10:40:44.691Z,1050
2019-06-26T10:41:57.399Z,1070
2019-06-26T10:43:07.627Z,1055
2019-06-26T10:44:17.598Z,1095
2019-06-26T10:45:27.598Z,1100
2019-06-26T10:46:37.572Z,1145
2019-06-26T10:47:49.515Z,1170
2019-06-26T10:48:59.639Z,1145
2019-06-26T10:50:09.347Z,1120
2019-06-26T10:51:19.083Z,1155
2019-06-26T10:52:29.055Z,1205
2019-06-26T10:53:39.037Z,1220
2019-06-26T10:54:51.623Z,1230
2019-06-26T10:56:01.616Z,1280
2019-06-26T10:57:11.628Z,1240
2019-06-26T10:58:21.631Z,1250
2019-06-26T10:59:31.385Z,1270
2019-06-26T11:00:41.507Z,1280
2019-06-26T11:01:51.000Z,1275
2019-06-26T11:03:00.885Z,1320
2019-06-26T11:04:10.636Z,1360
2019-06-26T11:05:20.615Z,1390
2019-06-26T11:06:30.363Z,1370
2019-06-26T11:07:43.575Z,605
2019-06-26T11:08:53.279Z,1370
2019-06-26T11:10:03.282Z,1360
2019-06-26T11:11:13.272Z,1410
2019-06-26T11:12:23.266Z,1415
2019-06-26T11:13:33.303Z,1430
2019-06-26T11:14:43.334Z,1445
2019-06-26T11:15:53.091Z,1455
2019-06-26T11:17:03.114Z,1470
2019-06-26T11:18:13.106Z,1515
2019-06-26T11:19:23.121Z,1445
2019-06-26T11:20:32.833Z,1530
2019-06-26T11:21:42.817Z,1490
2019-06-26T11:22:52.796Z,1525
2019-06-26T11:24:02.804Z,1600
2019-06-26T11:25:12.819Z,1560
2019-06-26T11:26:22.591Z,1565
2019-06-26T11:27:32.591Z,1560
2019-06-26T11:28:42.673Z,1655
2019-06-26T11:29:52.201Z,1580
2019-06-26T11:31:02.206Z,1550
2019-06-26T11:32:14.460Z,1585
2019-06-26T11:33:24.473Z,1615
2019-06-26T11:34:34.515Z,1650
2019-06-26T11:35:44.509Z,1540
2019-06-26T11:37:12.291Z,1530
2019-06-26T11:38:22.280Z,905
2019-06-26T11:39:32.317Z,1530
2019-06-26T11:40:42.348Z,1640
2019-06-26T11:41:52.357Z,1595
2019-06-26T11:43:02.340Z,1555
2019-06-26T11:44:12.458Z,1635
2019-06-26T11:45:22.416Z,1690
2019-06-26T11:46:32.152Z,1745
2019-06-26T11:47:45.457Z,1795
2019-06-26T11:48:55.743Z,1660
2019-06-26T11:50:10.006Z,1750
2019-06-26T11:51:19.986Z,1805
2019-06-26T11:52:30.012Z,1855
2019-06-26T11:53:40.040Z,1790
2019-06-26T11:55:06.721Z,1695
2019-06-26T11:56:16.876Z,1680
2019-06-26T11:57:26.935Z,1735
2019-06-26T11:58:36.908Z,1775
2019-06-26T11:59:46.674Z,1815
2019-06-26T12:00:56.506Z,1880
2019-06-26T12:02:06.660Z,1820
2019-06-26T12:03:20.679Z,1800
2019-06-26T12:04:30.695Z,1800
2019-06-26T12:05:40.451Z,1860
2019-06-26T12:06:53.009Z,1860
2019-06-26T12:08:03.010Z,1835
2019-06-26T12:09:12.978Z,1885
2019-06-26T12:10:23.113Z,1805
2019-06-26T12:11:32.892Z,1835
2019-06-26T12:12:42.874Z,1850
2019-06-26T12:13:52.603Z,1895
2019-06-26T12:15:02.571Z,1890
2019-06-26T12:16:12.472Z,1880
2019-06-26T12:17:22.510Z,1930
2019-06-26T12:18:32.557Z,1915
2019-06-26T12:19:42.323Z,1855
2019-06-26T12:20:52.116Z,1860
2019-06-26T12:22:02.122Z,1860
2019-06-26T12:23:12.170Z,1925
2019-06-26T12:24:21.396Z,1955
2019-06-26T12:25:31.122Z,1910
2019-06-26T12:26:41.129Z,1900
2019-06-26T12:27:51.139Z,1980
2019-06-26T12:29:01.291Z,1975
2019-06-26T12:30:11.295Z,1970
2019-06-26T12:31:21.042Z,2040
2019-06-26T12:32:30.787Z,2060
2019-06-26T12:33:40.764Z,2080
2019-06-26T12:34:54.729Z,2185
2019-06-26T12:36:04.705Z,2050
2019-06-26T12:37:14.702Z,2055
2019-06-26T12:38:24.426Z,2105
2019-06-26T12:39:34.482Z,2105
2019-06-26T12:40:44.201Z,2025
2019-06-26T12:41:53.673Z,1970
2019-06-26T12:43:05.319Z,2000
2019-06-26T12:44:15.516Z,1950
2019-06-26T12:45:25.529Z,1930
2019-06-26T12:46:35.486Z,1945
2019-06-26T12:47:45.260Z,2040
2019-06-26T12:48:55.077Z,2140
2019-06-26T12:50:05.402Z,2140
2019-06-26T12:51:15.393Z,2090
2019-06-26T12:52:26.390Z,700
2019-06-26T12:53:36.376Z,2110
2019-06-26T12:54:46.366Z,2055
2019-06-26T12:55:56.372Z,2165
2019-06-26T12:57:06.411Z,2255
2019-06-26T12:58:27.347Z,2155
2019-06-26T12:59:37.494Z,2075
2019-06-26T13:00:47.490Z,2085
2019-06-26T13:01:57.569Z,2050
2019-06-26T13:03:07.189Z,2075
2019-06-26T13:04:17.215Z,2220
2019-06-26T13:05:27.161Z,2180
2019-06-26T13:06:37.174Z,2090
2019-06-26T13:07:47.131Z,2105
2019-06-26T13:08:57.095Z,2125
2019-06-26T13:10:09.848Z,2120
2019-06-26T13:11:19.815Z,2110
2019-06-26T13:12:29.954Z,2150
2019-06-26T13:13:39.749Z,2225
2019-06-26T13:14:49.726Z,2180
2019-06-26T13:16:00.660Z,2070
2019-06-26T13:17:10.712Z,2050
2019-06-26T13:18:20.726Z,2065
2019-06-26T13:19:30.542Z,2140
2019-06-26T13:20:56.929Z,2215
2019-06-26T13:22:06.700Z,2250
2019-06-26T13:23:19.691Z,2185
2019-06-26T13:24:29.748Z,2275
2019-06-26T13:25:39.473Z,2270
2019-06-26T13:26:49.202Z,2120
2019-06-26T13:27:58.959Z,2140
2019-06-26T13:29:12.214Z,2145
2019-06-26T13:30:22.086Z,2190
2019-06-26T13:31:32.084Z,2125
2019-06-26T13:32:41.829Z,2105
2019-06-26T13:33:51.591Z,2130
2019-06-26T13:35:01.608Z,2120
2019-06-26T13:36:11.903Z,2195
2019-06-26T13:37:21.618Z,2280
2019-06-26T13:38:34.310Z,2295
2019-06-26T13:39:44.023Z,2325
2019-06-26T13:40:53.480Z,2350
2019-06-26T13:42:03.631Z,2310
2019-06-26T13:43:13.107Z,2210
2019-06-26T13:44:23.084Z,2140
2019-06-26T13:45:32.810Z,2115
2019-06-26T13:46:42.286Z,2160
2019-06-26T13:47:52.258Z,2220
2019-06-26T13:49:02.069Z,2245
2019-06-26T13:50:12.218Z,2245
2019-06-26T13:51:24.084Z,2250
2019-06-26T13:52:34.066Z,2275
2019-06-26T13:53:44.062Z,2180
2019-06-26T13:54:57.039Z,2220
2019-06-26T13:56:07.069Z,2270
2019-06-26T13:57:20.577Z,2175
2019-06-26T13:58:30.584Z,2180
2019-06-26T13:59:40.556Z,2130
2019-06-26T14:00:50.574Z,2220
2019-06-26T14:02:00.557Z,2175
2019-06-26T14:03:10.192Z,2120
2019-06-26T14:04:19.723Z,2165
2019-06-26T14:05:32.060Z,1990
2019-06-26T14:06:42.016Z,1905
2019-06-26T14:07:51.994Z,2145
2019-06-26T14:09:01.716Z,2215
2019-06-26T14:10:11.435Z,2150
2019-06-26T14:11:21.420Z,2055
2019-06-26T14:12:31.429Z,2075
2019-06-26T14:13:44.288Z,2015
2019-06-26T14:15:06.847Z,2175
2019-06-26T14:16:16.607Z,2140
2019-06-26T14:17:26.631Z,2075
2019-06-26T14:18:40.006Z,2190
2019-06-26T14:19:49.509Z,2185
2019-06-26T14:20:59.485Z,2155
2019-06-26T14:22:12.115Z,2230
2019-06-26T14:23:22.982Z,2125
2019-06-26T14:24:32.956Z,2015
2019-06-26T14:25:42.926Z,1035
2019-06-26T14:26:52.926Z,1970
2019-06-26T14:28:02.900Z,740
2019-06-26T14:29:29.497Z,2135
2019-06-26T14:30:39.494Z,930
2019-06-26T14:31:49.487Z,2000
2019-06-26T14:32:59.460Z,1965
2019-06-26T14:34:09.182Z,1965
2019-06-26T14:35:18.955Z,2010
2019-06-26T14:36:32.740Z,2010
2019-06-26T14:37:42.480Z,2045
2019-06-26T14:38:52.248Z,2080
2019-06-26T14:40:02.489Z,2090
2019-06-26T14:41:12.663Z,2190
2019-06-26T14:42:22.649Z,2080
2019-06-26T14:43:32.357Z,2150
2019-06-26T14:44:42.390Z,2175
2019-06-26T14:45:52.106Z,2050
2019-06-26T14:47:02.096Z,1865
2019-06-26T14:48:12.131Z,2055
2019-06-26T14:49:22.103Z,2040
2019-06-26T14:50:32.067Z,1795
2019-06-26T14:51:55.770Z,1950
2019-06-26T14:53:05.734Z,1395
2019-06-26T14:54:15.715Z,775
2019-06-26T14:55:25.695Z,1920
2019-06-26T14:56:35.683Z,1935
2019-06-26T14:57:45.681Z,2020
2019-06-26T14:58:55.695Z,1995
2019-06-26T15:00:05.660Z,1940
2019-06-26T15:01:15.440Z,1125
2019-06-26T15:02:25.529Z,1875
2019-06-26T15:03:35.760Z,1905
2019-06-26T15:04:48.618Z,1875
2019-06-26T15:06:12.203Z,1805
2019-06-26T15:07:25.135Z,1695
2019-06-26T15:08:35.140Z,1455
2019-06-26T15:09:45.208Z,1630
2019-06-26T15:10:55.183Z,1775
2019-06-26T15:12:05.161Z,510
2019-06-26T15:13:14.898Z,1720
2019-06-26T15:14:24.366Z,1630
2019-06-26T15:15:34.091Z,1590
2019-06-26T15:16:44.061Z,845
2019-06-26T15:17:54.094Z,420
2019-06-26T15:19:04.067Z,415
2019-06-26T15:20:14.081Z,490
2019-06-26T15:21:23.837Z,1360
2019-06-26T15:22:33.567Z,1240
2019-06-26T15:23:43.560Z,430
2019-06-26T15:24:53.551Z,420
2019-06-26T15:26:03.305Z,430
2019-06-26T15:27:13.271Z,450
2019-06-26T15:28:23.272Z,475
2019-06-26T15:29:33.264Z,535
2019-06-26T15:30:43.237Z,1400
2019-06-26T15:31:53.019Z,1120
2019-06-26T15:33:02.761Z,605
2019-06-26T15:34:12.742Z,590
2019-06-26T15:35:22.703Z,705
2019-06-26T15:36:32.895Z,560
2019-06-26T15:37:44.799Z,620
2019-06-26T15:38:54.492Z,1285
2019-06-26T15:40:04.518Z,1465
2019-06-26T15:41:14.234Z,630
2019-06-26T15:42:23.747Z,1410
2019-06-26T15:43:33.743Z,1430
2019-06-26T15:44:43.738Z,565
2019-06-26T15:45:53.463Z,480
2019-06-26T15:47:03.499Z,395
2019-06-26T15:48:13.504Z,375
2019-06-26T15:49:23.234Z,375
2019-06-26T15:50:32.706Z,400
2019-06-26T15:51:42.755Z,420
2019-06-26T15:52:52.463Z,1260
2019-06-26T15:54:04.842Z,1300
2019-06-26T15:55:14.362Z,1130
2019-06-26T15:56:24.351Z,1350
2019-06-26T15:57:34.336Z,1360
2019-06-26T15:58:44.082Z,1345
2019-06-26T15:59:54.059Z,1360
2019-06-26T16:01:04.062Z,1340
2019-06-26T16:02:14.114Z,1340
2019-06-26T16:03:23.850Z,1345
2019-06-26T16:04:37.616Z,1340
2019-06-26T16:05:47.343Z,1365
2019-06-26T16:06:57.322Z,1325
2019-06-26T16:08:07.328Z,1255
2019-06-26T16:09:17.066Z,1230
2019-06-26T16:10:27.027Z,1180
2019-06-26T16:11:37.017Z,1125
2019-06-26T16:12:46.581Z,1140
2019-06-26T16:13:56.576Z,1155